LIRELIED

Guest
Details From LIRE - Pratica Di Mare
To LIED - DECIMOMANNU
Flight Number -
Tags generated
Created
Modified
Stats Distance 212 nm / 393 km
Max Altitude 26,500 ft / 8,077 m
Waypoints 4
Social Downloads 0
Likes 0
Share VATSIM

Download

Looking for another format? Having issues loading an existing format? Contact us
Advertisement - Login to hide

Notes

Basic altitude profile: - Ascent Rate: 2000ft/min - Ascent Speed: 250kts - Cruise Altitude: 25000ft - Cruise Speed: 420kts - Descent Rate: 2000ft/min - Descent Speed: 250kts Options: - Use NATs: yes - Use PACOTS: yes - Use low airways: yes - Use high airways: yes

Route

LIRE ROXAN UM126 QUENN LIED

ID Type Via Altitude Latitude Longitude Leg Dist Tot Dist Heading (true) Name
O LIRE APT - 0 ft / 0 m 41.65452˚ 12.44518˚ - 0 nm - Pratica Di Mare
ROXAN FIX - 26,500 ft / 8,077 m 40.82972˚ 11.21722˚ 74 nm 74 nm 229° / 228° -
QUENN FIX UM126 (AWY-HI) 18,500 ft / 5,639 m 40.16500˚ 10.54361˚ 50 nm 124 nm 218° / 217° -
O LIED APT - 0 ft / 0 m 39.35394˚ 8.97249˚ 87 nm 212 nm 237° / 236° DECIMOMANNU

Altitude Profile

Advertisement - Login to hide

Weather


0- 5 10 15 20 25 30 35+ Temperature / ° C

Clouds and Precipitation
Forecast for 2017-12-12 18:00 UTC. Updated an hour ago

Ground ~20,000 ft ~40,000 ft Winds

LIRE

Details ICAO LIRE
Name Pratica Di Mare
Region Italy
Timezone Europe/Rome (UTC+1.0)
Stats Elevation 39 ft / 12 m (AMSL)
Location 41.654524° 12.445184°
Runways 2
Magnetic Variation 3.023° E

METAR

LIRE 121355Z 12013KT 5000 BR BKN015 SCT030 17/16 Q1013 RMK OVC VIS MIN 5000 WIND THR13 16009KT WIND THR31 /////KT WHT

Decode

TAF

Not found

Departure Runways

ID Width Length Bearing (true) Bearing (mag) Surface Threshold Offset Overrun Length
13 148 ft / 45 m 8,340 ft / 2,542 m 130.05° 127.03° Asphalt 500 ft / 152 m 0 ft / 0 m
13L 98 ft / 30 m 8,135 ft / 2,479 m 130.02° 127.00° Asphalt 430 ft / 131 m 0 ft / 0 m
31 148 ft / 45 m 8,340 ft / 2,542 m 310.07° 307.05° Asphalt 350 ft / 107 m 700 ft / 213 m
31R 98 ft / 30 m 8,135 ft / 2,479 m 310.03° 307.01° Asphalt 430 ft / 131 m 0 ft / 0 m

LIED

Details ICAO LIED (DCI)
Name DECIMOMANNU
Region Italy
Timezone Europe/Rome (UTC+1.0)
Stats Elevation 100 ft / 30 m (AMSL)
Location 39.353939° 8.972494°
Runways 2
Magnetic Variation 2.286° E

METAR

LIED 121355Z 33011KT 9999 FEW015 SCT040 15/14 Q1013 RMK BKN BKN150 VIS MIN 9999 WIND THR35 17003KT WIND THR17 /////KT BLU

Decode

TAF

Not found

Destination Runways

ID Width Length Bearing (true) Bearing (mag) Surface Threshold Offset Overrun Length
17L 148 ft / 45 m 9,799 ft / 2,987 m 167.21° 164.92° Asphalt 494 ft / 151 m 0 ft / 0 m
17R 74 ft / 23 m 8,580 ft / 2,615 m 167.00° 164.71° Asphalt 0 ft / 0 m 0 ft / 0 m
35L 74 ft / 23 m 8,580 ft / 2,615 m 347.00° 344.71° Asphalt 0 ft / 0 m 0 ft / 0 m
35R 148 ft / 45 m 9,799 ft / 2,987 m 347.21° 344.92° Asphalt 495 ft / 151 m 0 ft / 0 m

Popular Alternatives